West Bloomfield, NY (14585)

4:11 PM EDT on July 30, 2016 (GMT -0400)
Hopper Hills | | Change Station

Elev 844 ft 42.94 °N, 77.47 °W | Updated 6 minutes ago

Mostly Cloudy
Mostly Cloudy
77.9 °F
Feels Like 78 °F
N
1.0
Wind Variable Wind from ENE
Gusts 5.4 mph

Today
High -- | Low -- °F
--% Chance of Precip.
Yesterday
High -- | Low -- °F
Precip. -- in
Pressure 30.02 in
Visibility 10.0 miles
Clouds Few 4000 ft
Scattered Clouds 8000 ft
Mostly Cloudy 18000 ft
Heat Index 78 °F
Dew Point 46 °F
Humidity 32%
Rainfall Not available.
Snow Depth Not available.
5:59 AM 8:32 PM
Waning Crescent, 11% visible
METAR KROC 301954Z 12008KT 080V150 10SM FEW040 SCT080 BKN180 27/16 A3002 RMK AO2 SLP164 T02670161
Pressure 30.02 in
Visibility 10.0 miles
Clouds Few 4000 ft
Scattered Clouds 8000 ft
Mostly Cloudy 18000 ft
Heat Index 78 °F
Dew Point 46 °F
Humidity 32%
Rainfall Not available.
Snow Depth Not available.
5:59 AM 8:32 PM
Waning Crescent, 11% visible
METAR KROC 301954Z 12008KT 080V150 10SM FEW040 SCT080 BKN180 27/16 A3002 RMK AO2 SLP164 T02670161

10-Day Weather Forecast

Almanac

Astronomy

Jul. 30, 2016 Rise Set
Actual Time
Civil Twilight
Nautical Twilight
Astronomical Twilight
Moon
Length of Visible Light
Length of Day
Tomorrow will be .
, % of the Moon is Illuminated

Today's Extremes

State Highs State Lows

Community

WunderPhotos

Upload Photos

1,928,630 photos uploaded!

WunderBlog® & News

Nearby

Air Quality

  Air Quality AQ Index Pollutant
Not available.

Snow Depth

Station Depth Elevation

Earthquake Activity

City Distance Mag. Time & Date
Minimum magnitude displayed is 2.5.

Coastal Water Temperatures

Place Temperature

Stations

Nearby Weather Stations

Station Location Temp. Windchill Dew Point Humidity Wind Precip. Elev Updated Type
                   

Watches & Warnings

There are currently no watches in effect.